createdAt,value
2019-02-06T00:00:58.549Z,38.27
2019-02-06T00:04:07.347Z,33.10
2019-02-06T00:07:16.381Z,39.90
2019-02-06T00:10:25.033Z,40.83
2019-02-06T00:13:34.566Z,37.20
2019-02-06T00:16:53.862Z,36.57
2019-02-06T00:20:02.615Z,36.43
2019-02-06T00:23:11.429Z,35.87
2019-02-06T00:26:20.032Z,41.33
2019-02-06T00:29:28.870Z,37.93
2019-02-06T00:32:38.352Z,36.50
2019-02-06T00:35:57.185Z,36.70
2019-02-06T00:39:16.524Z,33.20
2019-02-06T00:42:25.123Z,38.07
2019-02-06T00:45:44.656Z,32.57
2019-02-06T00:48:53.465Z,34.10
2019-02-06T00:52:02.062Z,34.33
2019-02-06T00:55:12.392Z,35.43
2019-02-06T00:58:20.974Z,33.97
2019-02-06T01:01:29.546Z,37.33
2019-02-06T01:04:38.042Z,32.07
2019-02-06T01:07:56.915Z,33.70
2019-02-06T01:11:05.489Z,37.00
2019-02-06T01:14:14.094Z,33.97
2019-02-06T01:17:25.777Z,33.00
2019-02-06T01:20:33.090Z,34.17
2019-02-06T01:23:41.720Z,32.93
2019-02-06T01:26:50.332Z,33.77
2019-02-06T01:29:58.970Z,35.70
2019-02-06T01:33:18.214Z,32.70
2019-02-06T01:36:26.890Z,33.03
2019-02-06T01:39:35.520Z,30.87
2019-02-06T01:42:44.097Z,30.93
2019-02-06T01:45:52.732Z,33.43
2019-02-06T01:49:01.329Z,32.40
2019-02-06T01:52:09.928Z,30.10
2019-02-06T01:55:28.787Z,32.70
2019-02-06T01:58:37.281Z,32.00
2019-02-06T02:01:45.905Z,32.87
2019-02-06T02:04:54.673Z,29.27
2019-02-06T02:08:03.323Z,28.40
2019-02-06T02:11:11.886Z,32.50
2019-02-06T02:14:20.456Z,35.10
2019-02-06T02:17:29.338Z,35.77
2019-02-06T02:20:48.171Z,36.37
2019-02-06T02:23:56.765Z,38.83
2019-02-06T02:27:05.394Z,40.73
2019-02-06T02:30:22.786Z,42.73
2019-02-06T02:33:45.480Z,40.67
2019-02-06T02:36:54.365Z,46.63
2019-02-06T02:40:02.934Z,48.87
2019-02-06T02:43:11.490Z,50.40
2019-02-06T02:46:20.114Z,43.97
2019-02-06T02:49:28.717Z,48.83
2019-02-06T02:52:37.414Z,52.03
2019-02-06T02:55:46.146Z,52.83
2019-02-06T02:58:54.693Z,52.13
2019-02-06T03:02:47.857Z,50.67
2019-02-06T03:05:56.778Z,50.53
2019-02-06T03:09:12.225Z,54.30
2019-02-06T03:12:20.761Z,60.70
2019-02-06T03:15:29.466Z,56.37
2019-02-06T03:18:48.153Z,56.57
2019-02-06T03:21:56.757Z,56.90
2019-02-06T03:25:06.461Z,57.23
2019-02-06T03:28:25.105Z,53.83
2019-02-06T03:31:33.698Z,56.40
2019-02-06T03:34:42.199Z,49.87
2019-02-06T03:37:51.303Z,54.43
2019-02-06T03:40:59.920Z,48.60
2019-02-06T03:44:08.600Z,51.27
2019-02-06T03:47:17.172Z,49.70
2019-02-06T03:50:25.850Z,49.50
2019-02-06T03:53:36.001Z,51.77
2019-02-06T03:56:54.964Z,51.73
2019-02-06T04:00:03.487Z,50.70
2019-02-06T04:03:12.442Z,50.43
2019-02-06T04:06:21.236Z,55.30
2019-02-06T04:09:29.811Z,52.90
2019-02-06T04:12:38.488Z,55.80
2019-02-06T04:15:47.173Z,53.93
2019-02-06T04:18:54.272Z,56.47
2019-02-06T04:22:02.916Z,48.77
2019-02-06T04:25:12.018Z,53.23
2019-02-06T04:28:20.519Z,55.13
2019-02-06T04:31:29.137Z,51.00
2019-02-06T04:34:40.201Z,51.60
2019-02-06T04:37:48.896Z,57.90
2019-02-06T04:40:57.415Z,53.80
2019-02-06T04:44:06.215Z,50.87
2019-02-06T04:47:14.828Z,58.47
2019-02-06T04:50:23.582Z,52.17
2019-02-06T04:53:32.173Z,53.03
2019-02-06T04:56:51.086Z,52.40
2019-02-06T04:59:59.604Z,52.50
2019-02-06T05:03:08.153Z,53.90
2019-02-06T05:06:16.842Z,59.10
2019-02-06T05:09:25.332Z,53.63
2019-02-06T05:12:33.984Z,51.77
2019-02-06T05:15:43.022Z,51.33
2019-02-06T05:18:51.559Z,48.97
2019-02-06T05:22:10.409Z,53.47
2019-02-06T05:25:18.891Z,49.90
2019-02-06T05:28:27.770Z,49.00
2019-02-06T05:31:36.271Z,47.80
2019-02-06T05:34:44.870Z,49.27
2019-02-06T05:37:53.497Z,50.73
2019-02-06T05:41:02.449Z,50.63
2019-02-06T05:44:10.949Z,50.50
2019-02-06T05:47:29.854Z,51.53
2019-02-06T05:50:38.444Z,50.30
2019-02-06T05:53:47.417Z,49.67
2019-02-06T05:56:56.111Z,44.63
2019-02-06T06:00:06.224Z,43.67
2019-02-06T06:03:14.729Z,49.60
2019-02-06T06:06:23.469Z,49.33
2019-02-06T06:09:32.065Z,49.03
2019-02-06T06:12:40.776Z,47.77
2019-02-06T06:15:49.491Z,49.60
2019-02-06T06:19:08.313Z,46.73
2019-02-06T06:22:16.902Z,45.63
2019-02-06T06:25:25.746Z,45.03
2019-02-06T06:28:34.341Z,43.87
2019-02-06T06:31:42.839Z,45.30
2019-02-06T06:34:52.890Z,40.63
2019-02-06T06:38:03.039Z,44.80
2019-02-06T06:41:22.215Z,43.63
2019-02-06T06:44:30.938Z,40.00
2019-02-06T06:47:39.578Z,44.77
2019-02-06T06:50:48.200Z,42.60
2019-02-06T06:53:56.810Z,41.47
2019-02-06T06:57:06.472Z,39.17
2019-02-06T07:00:28.561Z,39.17
2019-02-06T07:03:37.036Z,41.17
2019-02-06T07:06:46.512Z,42.60
2019-02-06T07:10:07.000Z,42.90
2019-02-06T07:13:15.536Z,41.33
2019-02-06T07:16:24.231Z,42.93
2019-02-06T07:19:32.740Z,40.23
2019-02-06T07:22:41.331Z,35.67
2019-02-06T07:26:00.277Z,42.10
2019-02-06T07:29:08.858Z,35.80
2019-02-06T07:32:17.442Z,36.27
2019-02-06T07:35:26.169Z,38.20
2019-02-06T07:38:34.779Z,31.67
2019-02-06T07:41:43.380Z,38.13
2019-02-06T07:44:52.032Z,36.93
2019-02-06T07:48:00.679Z,34.50
2019-02-06T07:51:19.564Z,36.67
2019-02-06T07:54:28.137Z,33.33
2019-02-06T07:57:36.821Z,31.47
2019-02-06T08:00:45.429Z,30.67
2019-02-06T08:03:54.000Z,30.17
2019-02-06T08:07:02.901Z,33.43
2019-02-06T08:10:19.046Z,29.40
2019-02-06T08:13:38.153Z,23.93
2019-02-06T08:16:46.821Z,26.77
2019-02-06T08:19:55.491Z,28.10
2019-02-06T08:23:02.507Z,24.57
2019-02-06T08:26:11.149Z,26.00
2019-02-06T08:29:19.799Z,26.70
2019-02-06T08:32:28.405Z,23.57
2019-02-06T08:35:37.204Z,24.40
2019-02-06T08:38:47.637Z,25.70
2019-02-06T08:42:06.237Z,21.40
2019-02-06T08:45:16.636Z,25.13
2019-02-06T08:48:25.299Z,22.10
2019-02-06T08:51:33.414Z,22.83
2019-02-06T08:54:41.997Z,23.87
2019-02-06T08:58:01.267Z,24.67
2019-02-06T09:01:20.145Z,22.20
2019-02-06T09:04:28.793Z,23.30
2019-02-06T09:07:37.497Z,21.37
2019-02-06T09:10:46.452Z,28.00
2019-02-06T09:13:54.949Z,21.07
2019-02-06T09:17:03.611Z,20.70
2019-02-06T09:20:16.670Z,19.43
2019-02-06T09:23:25.726Z,20.40
2019-02-06T09:26:36.283Z,21.10
2019-02-06T09:29:54.700Z,22.53
2019-02-06T09:33:03.639Z,19.23
2019-02-06T09:36:12.229Z,19.13
2019-02-06T09:39:21.776Z,19.07
2019-02-06T09:42:30.396Z,20.07
2019-02-06T09:45:49.377Z,21.50
2019-02-06T09:48:57.977Z,20.87
2019-02-06T09:52:06.575Z,20.90
2019-02-06T09:55:15.471Z,20.33
2019-02-06T09:58:23.983Z,19.73
2019-02-06T10:01:32.491Z,19.10
2019-02-06T10:04:40.980Z,17.97
2019-02-06T10:08:00.059Z,15.73
2019-02-06T10:11:08.653Z,15.73
2019-02-06T10:14:17.252Z,14.77
2019-02-06T10:17:25.946Z,14.13
2019-02-06T10:20:50.375Z,15.43
2019-02-06T10:23:58.990Z,13.87
2019-02-06T10:27:08.868Z,14.90
2019-02-06T10:30:26.718Z,12.53
2019-02-06T10:33:35.463Z,13.17
2019-02-06T10:36:44.185Z,15.53
2019-02-06T10:39:52.883Z,14.23
2019-02-06T10:43:01.724Z,13.20
2019-02-06T10:46:10.643Z,14.90
2019-02-06T10:49:19.329Z,12.43
2019-02-06T10:52:29.261Z,12.40
2019-02-06T10:55:38.398Z,12.13
2019-02-06T10:58:46.957Z,13.10
2019-02-06T11:01:55.556Z,10.73
2019-02-06T11:05:14.989Z,11.03
2019-02-06T11:08:33.694Z,11.10
2019-02-06T11:11:42.186Z,10.73
2019-02-06T11:14:50.781Z,12.20
2019-02-06T11:17:59.451Z,15.13
2019-02-06T11:21:08.138Z,11.20
2019-02-06T11:24:17.206Z,12.37
2019-02-06T11:27:25.768Z,13.83
2019-02-06T11:30:34.844Z,11.90
2019-02-06T11:33:43.398Z,11.17
2019-02-06T11:36:51.981Z,11.40
2019-02-06T11:40:00.552Z,11.80
2019-02-06T11:43:19.473Z,13.93
2019-02-06T11:46:28.116Z,13.50
2019-02-06T11:49:40.348Z,12.60
2019-02-06T11:52:49.531Z,12.27
2019-02-06T11:56:08.535Z,12.30
2019-02-06T11:59:17.023Z,12.00
2019-02-06T12:02:36.668Z,14.23
2019-02-06T12:05:47.124Z,11.60
2019-02-06T12:08:55.730Z,13.97
2019-02-06T12:12:04.328Z,14.73
2019-02-06T12:15:17.086Z,13.30
2019-02-06T12:18:25.876Z,14.60
2019-02-06T12:21:44.714Z,15.70
2019-02-06T12:24:53.320Z,14.03
2019-02-06T12:28:04.957Z,15.90
2019-02-06T12:31:12.275Z,15.77
2019-02-06T12:34:20.770Z,12.90
2019-02-06T12:37:29.384Z,16.17
2019-02-06T12:40:38.090Z,19.70
2019-02-06T12:43:47.128Z,16.30
2019-02-06T12:46:55.733Z,15.20
2019-02-06T12:50:15.220Z,15.90
2019-02-06T12:53:33.971Z,16.83
2019-02-06T12:56:42.633Z,18.13
2019-02-06T12:59:51.443Z,17.83
2019-02-06T13:03:00.501Z,18.43
2019-02-06T13:06:19.678Z,20.13
2019-02-06T13:09:30.117Z,16.63
2019-02-06T13:12:38.761Z,20.50
2019-02-06T13:15:47.616Z,16.60
2019-02-06T13:18:56.233Z,13.57
2019-02-06T13:22:04.771Z,18.73
2019-02-06T13:25:14.887Z,15.93
2019-02-06T13:28:23.480Z,14.80
2019-02-06T13:31:32.053Z,14.37
2019-02-06T13:34:41.005Z,15.83
2019-02-06T13:37:59.949Z,17.73
2019-02-06T13:41:08.653Z,13.90
2019-02-06T13:44:17.303Z,17.00
2019-02-06T13:47:25.984Z,16.03
2019-02-06T13:50:35.222Z,17.57
2019-02-06T13:53:43.819Z,17.47
2019-02-06T13:56:52.582Z,19.57
2019-02-06T14:00:02.162Z,15.70
2019-02-06T14:03:11.030Z,14.20
2019-02-06T14:06:19.806Z,16.73
2019-02-06T14:09:28.300Z,16.17
2019-02-06T14:12:37.174Z,14.47
2019-02-06T14:15:56.043Z,14.13
2019-02-06T14:19:05.735Z,16.20
2019-02-06T14:22:14.294Z,15.77
2019-02-06T14:26:05.280Z,12.70
2019-02-06T14:30:06.947Z,14.07
2019-02-06T14:34:26.864Z,13.70
2019-02-06T14:38:27.462Z,15.07
2019-02-06T14:42:21.021Z,14.83
2019-02-06T14:47:01.322Z,12.33
2019-02-06T14:50:54.901Z,13.87
2019-02-06T14:54:45.723Z,14.23
2019-02-06T14:58:55.622Z,14.23
2019-02-06T15:03:22.742Z,14.13
2019-02-06T15:07:01.601Z,14.90
2019-02-06T15:11:34.549Z,15.27
2019-02-06T15:15:26.939Z,12.97
2019-02-06T15:19:15.998Z,13.57
2019-02-06T15:23:33.642Z,12.27
2019-02-06T15:27:53.949Z,15.00
2019-02-06T15:31:49.702Z,14.70
2019-02-06T15:36:02.613Z,11.57
2019-02-06T15:40:27.976Z,13.27
2019-02-06T15:44:34.493Z,14.87
2019-02-06T15:48:17.945Z,15.43
2019-02-06T15:52:31.496Z,14.50
2019-02-06T15:56:22.226Z,16.00
2019-02-06T16:00:14.694Z,15.20
2019-02-06T16:04:22.772Z,15.43
2019-02-06T16:08:46.247Z,15.00
2019-02-06T16:12:52.812Z,18.80
2019-02-06T16:16:39.852Z,18.63
2019-02-06T16:20:39.027Z,22.17
2019-02-06T16:24:33.774Z,20.97
2019-02-06T16:28:48.662Z,19.97
2019-02-06T16:32:33.850Z,20.67
2019-02-06T16:36:30.775Z,21.03
2019-02-06T16:40:47.971Z,22.03
2019-02-06T16:45:02.807Z,22.03
2019-02-06T16:48:53.501Z,20.03
2019-02-06T16:53:00.059Z,22.43
2019-02-06T16:57:15.056Z,20.97
2019-02-06T17:01:19.780Z,21.87
2019-02-06T17:05:08.257Z,23.57
2019-02-06T17:09:33.172Z,23.10
2019-02-06T17:13:37.991Z,22.33
2019-02-06T17:17:24.804Z,24.70
2019-02-06T17:21:09.900Z,22.53
2019-02-06T17:25:31.033Z,24.60
2019-02-06T17:29:33.261Z,25.27
2019-02-06T17:33:35.246Z,22.43
2019-02-06T17:38:01.104Z,22.50
2019-02-06T17:41:55.396Z,23.23
2019-02-06T17:45:37.729Z,22.53
2019-02-06T17:49:12.524Z,25.73
2019-02-06T17:53:26.763Z,27.50
2019-02-06T17:56:35.413Z,29.00
2019-02-06T17:59:44.267Z,28.93
2019-02-06T18:02:52.932Z,33.53
2019-02-06T18:06:14.588Z,29.17
2019-02-06T18:09:23.025Z,33.73
2019-02-06T18:12:31.660Z,29.90
2019-02-06T18:15:40.581Z,31.00
2019-02-06T18:18:49.235Z,28.57
2019-02-06T18:21:57.922Z,28.63
2019-02-06T18:25:08.867Z,29.83
2019-02-06T18:28:17.730Z,31.20
2019-02-06T18:31:26.390Z,28.67
2019-02-06T18:34:36.177Z,30.57
2019-02-06T18:37:49.264Z,30.43
2019-02-06T18:40:57.891Z,27.67
2019-02-06T18:44:06.980Z,27.10
2019-02-06T18:47:15.689Z,24.47
2019-02-06T18:50:37.573Z,27.83
2019-02-06T18:53:47.005Z,25.67
2019-02-06T18:56:55.747Z,25.13
2019-02-06T19:00:05.376Z,26.80
2019-02-06T19:03:21.063Z,26.63
2019-02-06T19:06:29.782Z,24.97
2019-02-06T19:09:38.336Z,24.07
2019-02-06T19:12:48.925Z,28.93
2019-02-06T19:15:57.315Z,23.77
2019-02-06T19:19:06.763Z,21.90
2019-02-06T19:22:15.313Z,24.80
2019-02-06T19:25:24.216Z,22.33
2019-02-06T19:28:32.923Z,23.40
2019-02-06T19:31:41.511Z,21.80
2019-02-06T19:34:50.180Z,22.70
2019-02-06T19:37:58.908Z,22.23
2019-02-06T19:41:07.473Z,22.97
2019-02-06T19:44:26.325Z,21.33
2019-02-06T19:47:34.840Z,20.70
2019-02-06T19:50:43.888Z,23.83
2019-02-06T19:53:52.565Z,21.93
2019-02-06T19:57:01.281Z,21.90
2019-02-06T20:00:15.968Z,20.97
2019-02-06T20:03:24.527Z,22.37
2019-02-06T20:06:43.360Z,28.37
2019-02-06T20:09:51.942Z,24.17
2019-02-06T20:13:10.661Z,24.67
2019-02-06T20:16:11.373Z,23.97
2019-02-06T20:19:20.741Z,24.43
2019-02-06T20:22:30.591Z,26.00
2019-02-06T20:25:39.269Z,22.73
2019-02-06T20:28:47.848Z,23.17
2019-02-06T20:31:56.310Z,23.03
2019-02-06T20:35:06.385Z,24.63
2019-02-06T20:38:14.942Z,24.67
2019-02-06T20:41:34.893Z,26.10
2019-02-06T20:44:43.489Z,23.93
2019-02-06T20:47:52.527Z,23.03
2019-02-06T20:51:01.194Z,22.83
2019-02-06T20:54:09.773Z,22.57
2019-02-06T20:57:18.423Z,25.93
2019-02-06T21:00:38.775Z,23.80
2019-02-06T21:03:47.357Z,24.50
2019-02-06T21:06:55.964Z,25.20
2019-02-06T21:10:05.139Z,23.63
2019-02-06T21:13:13.687Z,24.03
2019-02-06T21:16:22.369Z,22.97
2019-02-06T21:19:31.007Z,24.03
2019-02-06T21:22:39.466Z,26.30
2019-02-06T21:25:48.135Z,25.47
2019-02-06T21:28:56.803Z,27.80
2019-02-06T21:32:15.705Z,26.17
2019-02-06T21:35:24.355Z,24.90
2019-02-06T21:38:33.105Z,26.00
2019-02-06T21:41:41.760Z,23.90
2019-02-06T21:44:50.419Z,25.43
2019-02-06T21:47:59.023Z,26.27
2019-02-06T21:51:07.713Z,25.77
2019-02-06T21:54:16.291Z,26.17
2019-02-06T21:57:35.146Z,28.93
2019-02-06T22:00:45.187Z,27.43
2019-02-06T22:03:54.167Z,26.87
2019-02-06T22:07:02.666Z,32.97
2019-02-06T22:10:12.525Z,28.00
2019-02-06T22:13:31.201Z,28.40
2019-02-06T22:16:39.898Z,32.37
2019-02-06T22:19:48.404Z,30.47
2019-02-06T22:22:57.073Z,31.13
2019-02-06T22:26:05.872Z,35.97
2019-02-06T22:29:14.503Z,36.80
2019-02-06T22:32:23.090Z,35.60
2019-02-06T22:35:31.710Z,32.17
2019-02-06T22:38:50.633Z,37.77
2019-02-06T22:41:59.214Z,35.83
2019-02-06T22:45:10.910Z,34.37
2019-02-06T22:48:19.408Z,32.73
2019-02-06T22:51:28.068Z,34.53
2019-02-06T22:54:36.631Z,31.37
2019-02-06T22:57:55.670Z,32.73
2019-02-06T23:01:31.807Z,33.03
2019-02-06T23:04:50.873Z,32.23
2019-02-06T23:07:59.514Z,33.17
2019-02-06T23:11:08.493Z,32.83
2019-02-06T23:14:19.822Z,35.57
2019-02-06T23:17:27.134Z,35.20
2019-02-06T23:20:35.788Z,32.97
2019-02-06T23:23:44.351Z,35.47
2019-02-06T23:26:52.994Z,39.63
2019-02-06T23:30:01.949Z,34.27
2019-02-06T23:33:10.533Z,36.80
2019-02-06T23:36:29.530Z,37.70
2019-02-06T23:39:37.983Z,34.47
2019-02-06T23:42:46.571Z,33.90
2019-02-06T23:45:55.261Z,33.10
2019-02-06T23:49:03.827Z,39.80
2019-02-06T23:52:12.312Z,37.87
2019-02-06T23:55:31.284Z,37.97
2019-02-06T23:58:50.548Z,35.90
